Time;durP1;ratioP1;P1;durP2;ratioP2;P2;SDS_P1;SDS_P2;PMS_P1;PMS_P2;Temp;Humidity;BMP_temperature;BMP_pressure;BME280_temperature;BME280_humidity;BME280_pressure;Samples;Min_cycle;Max_cycle;Signal;HPM_P1;HPM_P2
2024/03/27 00:00:23;;;;;;;1.20;0.75;;;13.60;96.70;;;;;;5050939;28;20040;-70
2024/03/27 00:02:52;;;;;;;1.73;0.90;;;13.60;96.70;;;;;;5067254;28;20044;-71
2024/03/27 00:05:21;;;;;;;3.03;0.70;;;13.60;96.70;;;;;;5067368;28;20051;-70
2024/03/27 00:07:50;;;;;;;2.33;0.98;;;13.60;96.70;;;;;;5067062;28;20451;-69
2024/03/27 00:10:18;;;;;;;2.17;1.08;;;13.60;96.70;;;;;;5066873;28;20055;-70
2024/03/27 00:12:46;;;;;;;1.15;0.75;;;13.60;96.70;;;;;;5061263;28;20071;-70
2024/03/27 00:15:16;;;;;;;2.13;1.02;;;13.70;96.70;;;;;;5069636;28;20493;-70
2024/03/27 00:17:45;;;;;;;1.50;0.90;;;13.70;96.70;;;;;;5050919;28;20053;-70
2024/03/27 00:20:13;;;;;;;2.53;1.30;;;13.70;96.70;;;;;;5069105;28;20048;-69
2024/03/27 00:22:41;;;;;;;2.58;1.38;;;13.70;96.70;;;;;;5068511;28;20127;-69
2024/03/27 00:25:09;;;;;;;3.88;1.35;;;13.60;96.70;;;;;;5072259;28;20040;-69
2024/03/27 00:27:36;;;;;;;2.05;1.20;;;13.60;96.70;;;;;;5070882;28;20697;-71
2024/03/27 00:30:05;;;;;;;2.65;1.40;;;13.60;96.70;;;;;;5057631;28;20037;-70
2024/03/27 00:32:33;;;;;;;1.60;1.17;;;13.60;96.70;;;;;;5067351;28;20043;-69
2024/03/27 00:35:04;;;;;;;1.50;1.13;;;13.60;96.70;;;;;;5070516;28;20451;-70
2024/03/27 00:37:31;;;;;;;2.85;1.13;;;13.60;96.70;;;;;;5075201;28;20459;-70
2024/03/27 00:39:59;;;;;;;2.10;1.30;;;13.60;96.70;;;;;;5070296;28;20515;-70
2024/03/27 00:42:26;;;;;;;2.42;1.63;;;13.60;96.70;;;;;;5077020;28;20500;-71
2024/03/27 00:44:54;;;;;;;3.03;1.38;;;13.60;96.70;;;;;;5053531;28;20052;-70
2024/03/27 00:47:23;;;;;;;2.33;1.40;;;13.60;96.70;;;;;;5058451;28;20167;-70
2024/03/27 00:49:52;;;;;;;5.68;1.60;;;13.60;96.70;;;;;;5066657;28;20071;-71
2024/03/27 00:52:21;;;;;;;2.20;1.40;;;13.60;96.70;;;;;;5076049;28;20048;-70
2024/03/27 00:54:49;;;;;;;2.83;1.55;;;13.60;96.70;;;;;;5048280;28;20044;-69
2024/03/27 00:57:17;;;;;;;1.98;1.33;;;13.60;96.70;;;;;;5070812;28;20546;-70
2024/03/27 00:59:44;;;;;;;1.75;1.30;;;13.60;96.70;;;;;;5047913;28;20134;-71
2024/03/27 01:02:12;;;;;;;2.22;1.30;;;13.60;96.70;;;;;;5066750;28;20645;-70
2024/03/27 01:04:40;;;;;;;2.58;1.35;;;13.60;96.70;;;;;;5068179;28;20060;-70
2024/03/27 01:07:07;;;;;;;3.45;1.73;;;13.60;96.70;;;;;;5070135;28;20041;-70
2024/03/27 01:09:36;;;;;;;2.72;1.60;;;13.60;96.70;;;;;;5066928;28;20052;-71
2024/03/27 01:12:04;;;;;;;2.67;1.65;;;13.60;96.70;;;;;;5070327;28;21248;-71
2024/03/27 01:14:32;;;;;;;2.97;1.90;;;13.60;96.70;;;;;;5068178;28;20570;-71
2024/03/27 01:16:59;;;;;;;2.95;1.70;;;13.60;96.70;;;;;;5069624;28;20453;-70
2024/03/27 01:19:27;;;;;;;2.38;1.73;;;13.60;96.70;;;;;;5073993;28;20052;-70
2024/03/27 01:21:55;;;;;;;3.58;1.80;;;13.50;96.70;;;;;;5069192;28;20045;-70
2024/03/27 01:24:25;;;;;;;2.13;1.60;;;13.50;96.70;;;;;;5049613;28;20102;-70
2024/03/27 01:26:54;;;;;;;1.75;1.33;;;13.50;96.70;;;;;;5070487;28;20568;-71
2024/03/27 01:29:23;;;;;;;4.63;1.40;;;13.50;96.70;;;;;;5087928;28;20134;-70
2024/03/27 01:31:51;;;;;;;3.22;1.50;;;13.50;96.70;;;;;;5088445;28;20050;-70
2024/03/27 01:34:19;;;;;;;3.20;2.00;;;13.40;96.70;;;;;;5088139;28;20035;-70
2024/03/27 01:36:46;;;;;;;3.80;1.58;;;13.40;96.70;;;;;;5088155;28;20047;-70
2024/03/27 01:39:17;;;;;;;3.70;1.50;;;13.40;96.70;;;;;;5083184;28;20406;-71
2024/03/27 01:41:45;;;;;;;2.28;1.20;;;13.40;96.70;;;;;;5088469;28;20096;-70
2024/03/27 01:44:18;;;;;;;2.88;1.50;;;13.50;96.70;;;;;;5082378;28;20040;-71
2024/03/27 01:46:47;;;;;;;3.55;1.60;;;13.50;96.70;;;;;;5081370;28;20066;-71
2024/03/27 01:49:17;;;;;;;2.83;1.30;;;13.50;96.70;;;;;;5087994;28;20055;-71
2024/03/27 01:51:45;;;;;;;3.10;1.65;;;13.40;96.70;;;;;;5087810;28;20089;-71
2024/03/27 01:54:15;;;;;;;2.45;1.70;;;13.40;96.70;;;;;;5071418;28;20652;-70
2024/03/27 01:56:44;;;;;;;4.90;1.50;;;13.40;96.70;;;;;;5085004;28;20052;-70
2024/03/27 01:59:14;;;;;;;2.97;1.60;;;13.40;96.70;;;;;;5070008;28;20099;-70
2024/03/27 02:01:49;;;;;;;2.25;1.40;;;13.40;96.70;;;;;;5063080;28;20139;-70
2024/03/27 02:04:18;;;;;;;2.95;1.52;;;13.40;96.70;;;;;;5084766;28;20039;-70
2024/03/27 02:06:48;;;;;;;5.80;1.52;;;13.40;96.70;;;;;;5087359;28;20497;-70
2024/03/27 02:09:16;;;;;;;2.92;1.95;;;13.40;96.70;;;;;;5070762;28;20047;-71
2024/03/27 02:11:43;;;;;;;2.45;1.27;;;13.40;96.70;;;;;;5088407;28;20058;-70
2024/03/27 02:14:14;;;;;;;2.80;1.52;;;13.40;96.70;;;;;;5079440;28;20093;-70
2024/03/27 02:16:43;;;;;;;3.72;2.00;;;13.40;96.70;;;;;;5082982;28;20071;-71
2024/03/27 02:19:11;;;;;;;3.28;1.90;;;13.40;96.70;;;;;;5071121;28;20051;-70
2024/03/27 02:21:40;;;;;;;4.25;2.13;;;13.40;96.70;;;;;;5087842;28;20055;-70
2024/03/27 02:24:24;;;;;;;4.30;2.42;;;13.40;96.70;;;;;;5088369;28;20582;-70
2024/03/27 02:26:55;;;;;;;3.55;2.13;;;13.40;96.70;;;;;;5069471;28;20078;-70
2024/03/27 02:29:22;;;;;;;2.22;1.80;;;13.30;96.70;;;;;;5071021;28;20054;-71
2024/03/27 02:31:50;;;;;;;4.47;2.30;;;13.30;96.70;;;;;;5087762;28;20044;-71
2024/03/27 02:34:17;;;;;;;4.57;2.67;;;13.30;96.70;;;;;;5087685;28;20042;-71
2024/03/27 02:36:45;;;;;;;2.47;1.73;;;13.30;96.70;;;;;;5087843;28;20055;-70
2024/03/27 02:39:12;;;;;;;3.58;2.03;;;13.30;96.70;;;;;;5070626;28;20142;-69
2024/03/27 02:41:40;;;;;;;5.43;2.28;;;13.40;96.70;;;;;;5087543;28;20520;-70
2024/03/27 02:44:11;;;;;;;4.53;2.22;;;13.40;96.70;;;;;;5087211;28;20044;-70
2024/03/27 02:46:40;;;;;;;4.00;2.30;;;13.40;96.70;;;;;;5069420;28;20142;-71
2024/03/27 02:49:07;;;;;;;4.93;2.50;;;13.40;96.70;;;;;;5087587;28;20047;-71
2024/03/27 02:51:36;;;;;;;5.53;2.47;;;13.40;96.70;;;;;;5087993;28;20047;-70
2024/03/27 02:54:04;;;;;;;3.80;2.35;;;13.40;96.70;;;;;;5085357;28;20047;-70
2024/03/27 02:56:31;;;;;;;6.80;2.70;;;13.40;96.70;;;;;;5086644;28;20075;-69
2024/03/27 02:58:59;;;;;;;4.40;2.55;;;13.40;96.70;;;;;;5087732;28;20044;-70
2024/03/27 03:01:29;;;;;;;6.65;2.38;;;13.40;96.70;;;;;;5069905;28;20051;-70
2024/03/27 03:03:57;;;;;;;4.57;2.60;;;13.40;96.70;;;;;;5080290;28;20086;-71
2024/03/27 03:06:24;;;;;;;5.25;2.72;;;13.40;96.70;;;;;;5086816;28;20051;-70
2024/03/27 03:08:52;;;;;;;4.07;2.33;;;13.40;96.70;;;;;;5063053;28;20052;-70
2024/03/27 03:11:19;;;;;;;5.35;2.45;;;13.40;96.70;;;;;;5087631;28;20686;-71
2024/03/27 03:13:46;;;;;;;5.03;2.38;;;13.40;96.70;;;;;;5089057;28;20404;-71
2024/03/27 03:16:13;;;;;;;6.72;2.80;;;13.40;96.70;;;;;;5086777;28;20047;-70
2024/03/27 03:18:43;;;;;;;6.32;2.10;;;13.40;96.70;;;;;;5073958;28;20099;-70
2024/03/27 03:21:11;;;;;;;4.28;2.65;;;13.50;96.70;;;;;;5074401;28;20055;-70
2024/03/27 03:23:38;;;;;;;5.28;2.70;;;13.50;96.70;;;;;;5091071;28;20047;-70
2024/03/27 03:26:06;;;;;;;5.43;2.10;;;13.50;96.70;;;;;;5091379;28;20044;-70
2024/03/27 03:28:33;;;;;;;5.80;2.30;;;13.50;96.70;;;;;;5048589;28;20049;-71
2024/03/27 03:31:06;;;;;;;5.43;2.20;;;13.50;96.70;;;;;;5067131;28;20044;-70
2024/03/27 03:33:33;;;;;;;5.10;2.72;;;13.50;96.70;;;;;;5067606;28;20540;-70
2024/03/27 03:36:05;;;;;;;5.60;2.13;;;13.50;96.70;;;;;;5083797;28;20068;-70
2024/03/27 03:38:34;;;;;;;7.43;2.13;;;13.60;96.70;;;;;;5067213;28;20151;-70
2024/03/27 03:41:08;;;;;;;6.25;2.35;;;13.60;96.70;;;;;;5067173;28;20643;-70
2024/03/27 03:43:35;;;;;;;6.97;2.30;;;13.60;96.70;;;;;;5067027;28;20062;-70
2024/03/27 03:46:03;;;;;;;4.68;2.05;;;13.60;96.70;;;;;;5067901;28;20485;-69
2024/03/27 03:48:31;;;;;;;7.13;2.80;;;13.60;96.70;;;;;;5066743;28;20825;-71
2024/03/27 03:50:58;;;;;;;6.63;2.22;;;13.60;96.70;;;;;;5084554;28;20056;-70
2024/03/27 03:53:28;;;;;;;6.28;2.35;;;13.70;96.70;;;;;;5067493;28;20886;-69
2024/03/27 03:55:55;;;;;;;7.15;2.60;;;13.60;96.70;;;;;;5064048;28;20151;-69
2024/03/27 03:58:25;;;;;;;7.82;2.78;;;13.60;96.70;;;;;;5068123;28;20059;-68
2024/03/27 04:00:54;;;;;;;7.32;2.70;;;13.60;96.70;;;;;;5066860;28;20049;-70
2024/03/27 04:03:22;;;;;;;6.40;2.22;;;13.60;96.70;;;;;;5075522;28;20790;-69
2024/03/27 04:05:51;;;;;;;6.65;2.33;;;13.60;96.70;;;;;;5051274;28;20524;-70
2024/03/27 04:08:20;;;;;;;5.90;2.90;;;13.60;96.70;;;;;;5067598;28;20048;-70
2024/03/27 04:10:50;;;;;;;6.18;2.78;;;13.60;96.70;;;;;;5067181;28;20413;-69
2024/03/27 04:13:18;;;;;;;7.82;2.60;;;13.60;96.70;;;;;;5074246;28;20444;-70
2024/03/27 04:15:46;;;;;;;10.60;2.78;;;13.60;96.70;;;;;;5066431;28;20044;-70
2024/03/27 04:18:14;;;;;;;5.78;2.25;;;13.70;96.70;;;;;;5066880;28;20102;-70
2024/03/27 04:20:41;;;;;;;9.00;2.63;;;13.70;96.70;;;;;;5066942;28;20049;-69
2024/03/27 04:23:08;;;;;;;7.63;2.88;;;13.70;96.70;;;;;;5083671;28;20048;-69
2024/03/27 04:25:35;;;;;;;9.60;2.67;;;13.70;96.70;;;;;;5049307;28;20037;-70
2024/03/27 04:28:06;;;;;;;10.25;3.08;;;13.80;96.70;;;;;;5070241;28;20159;-70
2024/03/27 04:30:37;;;;;;;6.90;2.58;;;13.80;96.70;;;;;;5066461;28;20115;-70
2024/03/27 04:33:04;;;;;;;7.22;2.38;;;13.80;96.70;;;;;;5066257;28;20055;-70
2024/03/27 04:35:32;;;;;;;11.35;2.45;;;13.80;96.70;;;;;;5066313;28;20054;-70
2024/03/27 04:38:00;;;;;;;8.23;2.50;;;13.90;96.70;;;;;;5072946;28;20064;-70
2024/03/27 04:40:27;;;;;;;6.30;2.20;;;13.90;96.70;;;;;;5066529;28;20044;-70
2024/03/27 04:42:54;;;;;;;10.95;3.17;;;13.90;96.70;;;;;;5065857;28;20055;-70
2024/03/27 04:45:23;;;;;;;8.00;2.40;;;14.00;96.70;;;;;;5065502;28;21428;-69
2024/03/27 04:47:52;;;;;;;13.68;3.70;;;14.00;96.70;;;;;;5043444;28;20072;-70
2024/03/27 04:50:22;;;;;;;7.63;2.60;;;14.00;96.70;;;;;;5065180;28;20067;-70
2024/03/27 04:52:52;;;;;;;7.88;2.33;;;14.10;96.70;;;;;;5062753;28;20071;-70
2024/03/27 04:55:20;;;;;;;9.40;2.72;;;14.10;96.70;;;;;;5065716;28;20033;-70
2024/03/27 04:57:48;;;;;;;5.05;2.13;;;14.10;96.70;;;;;;5065354;28;20735;-70
2024/03/27 05:00:16;;;;;;;7.60;2.63;;;14.10;96.70;;;;;;5048956;28;20041;-69
2024/03/27 05:02:46;;;;;;;11.07;2.50;;;14.10;96.70;;;;;;5064658;28;20182;-69
2024/03/27 05:05:15;;;;;;;8.93;3.05;;;14.20;96.70;;;;;;5048309;28;20044;-71
2024/03/27 05:07:42;;;;;;;8.32;2.70;;;14.20;96.70;;;;;;5062965;28;20056;-71
2024/03/27 05:10:12;;;;;;;9.02;2.33;;;14.20;96.70;;;;;;5063920;28;20049;-71
2024/03/27 05:12:44;;;;;;;9.95;2.88;;;14.20;96.70;;;;;;5064220;28;20061;-70
2024/03/27 05:15:14;;;;;;;9.13;2.92;;;14.10;96.70;;;;;;5062273;28;20540;-70
2024/03/27 05:17:41;;;;;;;7.88;2.35;;;14.20;96.70;;;;;;5048203;28;20045;-70
2024/03/27 05:20:12;;;;;;;9.80;2.58;;;14.20;96.70;;;;;;5063417;28;20040;-71
2024/03/27 05:22:40;;;;;;;11.45;2.75;;;14.10;96.70;;;;;;5030740;28;20093;-70
2024/03/27 05:25:10;;;;;;;8.20;2.60;;;14.10;96.70;;;;;;5064272;28;20041;-70
2024/03/27 05:27:38;;;;;;;10.05;2.75;;;14.10;96.70;;;;;;5064653;28;20056;-70
2024/03/27 05:30:07;;;;;;;8.65;2.75;;;14.20;96.70;;;;;;5049150;28;20131;-70
2024/03/27 05:32:36;;;;;;;9.48;2.47;;;14.20;96.70;;;;;;5065254;28;20066;-70
2024/03/27 05:35:05;;;;;;;11.55;2.90;;;14.20;96.70;;;;;;5064693;28;20513;-69
2024/03/27 05:37:34;;;;;;;10.57;2.35;;;14.20;96.70;;;;;;5048010;28;20055;-70
2024/03/27 05:40:04;;;;;;;10.35;2.47;;;14.20;96.70;;;;;;5065201;28;20044;-71
2024/03/27 05:42:34;;;;;;;7.70;2.75;;;14.20;96.70;;;;;;5065186;28;20059;-70
2024/03/27 05:45:01;;;;;;;6.95;2.13;;;14.20;96.70;;;;;;5048696;28;20048;-70
2024/03/27 05:47:28;;;;;;;9.23;2.60;;;14.20;96.70;;;;;;5049066;28;20550;-71
2024/03/27 05:49:57;;;;;;;9.07;2.78;;;14.20;96.70;;;;;;5059895;28;20055;-71
2024/03/27 05:52:29;;;;;;;6.65;2.70;;;14.20;96.70;;;;;;5048822;28;20079;-71
2024/03/27 05:54:58;;;;;;;8.43;2.88;;;14.20;96.70;;;;;;5064006;28;20040;-71
2024/03/27 05:57:26;;;;;;;8.75;3.38;;;14.20;96.70;;;;;;5048787;28;20048;-70
2024/03/27 05:59:53;;;;;;;15.18;3.53;;;14.20;96.70;;;;;;5065053;28;20053;-68
2024/03/27 06:02:22;;;;;;;10.70;3.38;;;14.20;96.70;;;;;;5065352;28;20044;-68
2024/03/27 06:04:50;;;;;;;8.80;2.90;;;14.20;96.70;;;;;;5047448;28;20104;-68
2024/03/27 06:07:17;;;;;;;9.95;3.00;;;14.20;96.70;;;;;;5064457;28;20590;-67
2024/03/27 06:09:45;;;;;;;9.35;3.08;;;14.20;96.70;;;;;;5064542;28;20064;-67
2024/03/27 06:12:14;;;;;;;10.40;3.08;;;14.20;96.70;;;;;;5047977;28;20773;-70
2024/03/27 06:14:41;;;;;;;10.98;3.42;;;14.30;96.70;;;;;;5031041;28;20151;-70
2024/03/27 06:17:10;;;;;;;13.48;2.95;;;14.30;96.70;;;;;;5064857;28;20094;-71
2024/03/27 06:19:40;;;;;;;7.18;2.90;;;14.30;96.70;;;;;;5065049;28;20471;-69
2024/03/27 06:22:09;;;;;;;7.88;2.45;;;14.30;96.70;;;;;;5032085;28;20056;-71
2024/03/27 06:24:37;;;;;;;11.98;2.65;;;14.30;96.70;;;;;;5065046;28;20044;-71
2024/03/27 06:27:06;;;;;;;7.20;3.08;;;14.30;96.70;;;;;;5068799;28;20086;-71
2024/03/27 06:29:35;;;;;;;13.00;3.25;;;14.30;96.70;;;;;;5092329;28;20050;-70
2024/03/27 06:32:06;;;;;;;17.40;5.10;;;14.30;96.70;;;;;;5070899;28;20116;-70
2024/03/27 06:34:36;;;;;;;17.73;4.03;;;14.30;96.70;;;;;;5070538;28;20089;-71
2024/03/27 06:37:04;;;;;;;9.85;3.03;;;14.20;96.70;;;;;;5071304;28;20123;-71
2024/03/27 06:39:31;;;;;;;10.50;2.75;;;14.10;96.70;;;;;;5088117;28;20180;-70
2024/03/27 06:42:00;;;;;;;11.23;2.90;;;14.00;96.70;;;;;;5070883;28;20075;-71
2024/03/27 06:44:28;;;;;;;10.60;2.70;;;14.00;96.70;;;;;;5084867;28;20487;-70
2024/03/27 06:46:58;;;;;;;12.30;3.10;;;13.90;96.70;;;;;;5068328;28;20161;-70
2024/03/27 06:49:32;;;;;;;12.18;3.33;;;14.00;96.70;;;;;;5090104;28;20039;-70
2024/03/27 06:52:00;;;;;;;12.45;3.25;;;14.00;96.70;;;;;;5073584;28;20043;-70
2024/03/27 06:54:28;;;;;;;10.85;3.00;;;14.00;96.70;;;;;;5091248;28;20121;-70
2024/03/27 06:56:55;;;;;;;8.27;3.67;;;14.00;96.70;;;;;;5090773;28;20523;-70
2024/03/27 06:59:23;;;;;;;11.02;3.95;;;14.00;96.70;;;;;;5091146;28;20043;-70
2024/03/27 07:01:51;;;;;;;10.93;3.63;;;14.00;96.70;;;;;;5090945;28;20542;-70
2024/03/27 07:04:25;;;;;;;14.75;3.85;;;14.00;96.70;;;;;;5091664;28;20054;-70
2024/03/27 07:06:53;;;;;;;14.00;4.13;;;14.00;96.70;;;;;;5090863;28;20051;-70
2024/03/27 07:09:23;;;;;;;13.43;3.90;;;14.00;96.70;;;;;;5091856;28;20050;-70
2024/03/27 07:11:50;;;;;;;8.73;3.05;;;14.00;96.70;;;;;;5074830;28;20496;-69
2024/03/27 07:14:19;;;;;;;8.27;2.00;;;13.90;96.70;;;;;;5091289;28;20047;-69
2024/03/27 07:16:47;;;;;;;7.80;2.80;;;13.90;96.70;;;;;;5091163;28;20047;-69
2024/03/27 07:19:15;;;;;;;8.80;3.00;;;13.90;96.70;;;;;;5089226;28;20412;-69
2024/03/27 07:21:45;;;;;;;12.98;3.65;;;13.90;96.70;;;;;;5073925;28;20055;-69
2024/03/27 07:24:15;;;;;;;13.02;4.03;;;14.00;96.70;;;;;;5091543;28;20044;-69
2024/03/27 07:26:44;;;;;;;8.80;3.25;;;14.00;96.70;;;;;;5074426;28;20533;-69
2024/03/27 07:29:11;;;;;;;10.48;2.60;;;14.00;96.70;;;;;;5077328;28;20519;-69
2024/03/27 07:31:38;;;;;;;8.32;2.67;;;14.00;96.70;;;;;;5068901;28;20053;-68
2024/03/27 07:34:06;;;;;;;8.25;2.40;;;14.00;96.70;;;;;;5050996;28;20041;-69
2024/03/27 07:36:34;;;;;;;7.18;1.83;;;14.00;96.70;;;;;;5051348;28;20076;-67
2024/03/27 07:39:03;;;;;;;7.70;1.58;;;13.90;96.70;;;;;;5068708;28;20450;-67
2024/03/27 07:41:32;;;;;;;5.05;1.15;;;13.90;96.70;;;;;;5073868;28;20048;-67
2024/03/27 07:44:01;;;;;;;5.82;1.05;;;13.90;96.70;;;;;;5067874;28;20044;-68
2024/03/27 07:46:29;;;;;;;4.15;1.67;;;13.80;96.70;;;;;;5085410;28;20048;-69
2024/03/27 07:48:57;;;;;;;5.95;0.95;;;13.80;96.70;;;;;;5059443;28;20089;-67
2024/03/27 07:51:26;;;;;;;6.50;0.80;;;13.70;96.70;;;;;;5077162;28;20048;-68
2024/03/27 07:53:55;;;;;;;3.53;0.60;;;13.70;96.70;;;;;;5067478;28;20068;-68
2024/03/27 07:56:27;;;;;;;6.03;0.75;;;13.60;96.70;;;;;;5073208;28;20098;-68
2024/03/27 07:58:54;;;;;;;3.00;0.75;;;13.60;96.70;;;;;;5051905;28;20545;-68
2024/03/27 08:01:24;;;;;;;6.53;0.93;;;13.60;96.70;;;;;;5051471;28;20142;-68
2024/03/27 08:03:52;;;;;;;5.93;0.73;;;13.50;96.70;;;;;;5079369;28;20048;-68
2024/03/27 08:06:19;;;;;;;7.15;1.17;;;13.40;96.70;;;;;;5085876;28;20412;-68
2024/03/27 08:08:50;;;;;;;6.25;1.20;;;13.40;96.70;;;;;;5054865;28;20083;-68
2024/03/27 08:11:19;;;;;;;8.15;1.25;;;13.30;96.70;;;;;;5084644;28;20047;-68
2024/03/27 08:13:54;;;;;;;4.55;1.35;;;13.30;96.70;;;;;;5077474;28;20121;-68
2024/03/27 08:16:24;;;;;;;10.07;2.03;;;13.30;96.70;;;;;;5082787;28;20064;-68
2024/03/27 08:18:52;;;;;;;6.57;1.42;;;13.20;96.70;;;;;;5072483;28;20630;-68
2024/03/27 08:21:19;;;;;;;10.07;1.77;;;13.20;96.70;;;;;;5079700;28;20055;-68
2024/03/27 08:23:48;;;;;;;7.53;1.48;;;13.30;96.70;;;;;;5065633;28;20132;-68
2024/03/27 08:26:15;;;;;;;8.82;1.95;;;13.20;96.70;;;;;;5075445;28;20050;-68
2024/03/27 08:28:43;;;;;;;6.30;1.70;;;13.30;96.70;;;;;;5059030;28;20099;-68
2024/03/27 08:31:13;;;;;;;5.68;1.58;;;13.30;96.70;;;;;;5077094;28;20474;-68
2024/03/27 08:33:44;;;;;;;5.45;1.20;;;13.30;96.70;;;;;;5067461;28;20040;-68
2024/03/27 08:36:13;;;;;;;7.47;1.35;;;13.20;96.70;;;;;;5076387;28;20123;-68
2024/03/27 08:38:40;;;;;;;6.38;1.05;;;13.00;96.70;;;;;;5075979;28;20113;-67
2024/03/27 08:41:08;;;;;;;4.38;0.60;;;12.80;96.70;;;;;;5073048;28;20052;-68
2024/03/27 08:43:37;;;;;;;5.22;1.40;;;12.70;96.70;;;;;;5077374;28;20098;-68
2024/03/27 08:46:05;;;;;;;3.47;1.25;;;12.70;96.70;;;;;;5076114;28;20090;-69
2024/03/27 08:48:33;;;;;;;6.70;1.50;;;12.70;96.70;;;;;;5058814;28;20052;-68
2024/03/27 08:51:04;;;;;;;7.88;1.42;;;12.70;96.70;;;;;;5084832;28;20138;-68
2024/03/27 08:53:32;;;;;;;3.30;0.88;;;12.70;96.70;;;;;;5042400;28;20053;-67
2024/03/27 08:56:01;;;;;;;3.42;0.80;;;12.60;96.70;;;;;;5076519;28;20043;-68
2024/03/27 08:58:29;;;;;;;3.00;0.50;;;12.50;96.70;;;;;;5067502;28;20045;-68
2024/03/27 09:00:57;;;;;;;3.83;1.23;;;12.40;96.70;;;;;;5075025;28;20045;-68
2024/03/27 09:03:27;;;;;;;2.95;0.80;;;12.40;96.70;;;;;;5058431;28;20079;-68
2024/03/27 09:05:57;;;;;;;5.13;1.13;;;12.50;96.70;;;;;;5075220;28;20055;-68
2024/03/27 09:08:26;;;;;;;5.68;0.90;;;12.40;96.70;;;;;;5050695;28;20056;-67
2024/03/27 09:10:55;;;;;;;3.40;0.77;;;12.40;96.70;;;;;;5073078;28;20049;-69
2024/03/27 09:13:23;;;;;;;6.07;0.90;;;12.40;96.70;;;;;;5071051;28;20048;-67
2024/03/27 09:15:50;;;;;;;3.33;0.82;;;12.40;96.70;;;;;;5067069;28;20068;-66
2024/03/27 09:18:17;;;;;;;5.00;0.77;;;12.40;96.70;;;;;;5055539;28;20040;-68
2024/03/27 09:20:52;;;;;;;5.45;0.95;;;12.30;96.70;;;;;;5084938;28;20568;-66
2024/03/27 09:23:24;;;;;;;3.60;1.30;;;12.20;96.70;;;;;;5072775;28;20072;-67
2024/03/27 09:25:56;;;;;;;5.28;0.82;;;12.20;96.70;;;;;;5075455;28;20060;-67
2024/03/27 09:28:26;;;;;;;7.32;1.15;;;12.20;96.70;;;;;;5070447;28;20060;-68
2024/03/27 09:30:54;;;;;;;4.50;0.60;;;12.10;96.70;;;;;;5075367;28;20059;-67
2024/03/27 09:33:25;;;;;;;6.20;1.30;;;12.00;96.70;;;;;;5058889;28;20048;-67
2024/03/27 09:35:56;;;;;;;3.33;0.60;;;11.80;96.70;;;;;;5070137;28;20517;-68
2024/03/27 09:38:26;;;;;;;3.25;0.63;;;11.70;96.70;;;;;;5045559;28;20110;-69
2024/03/27 09:40:56;;;;;;;3.33;0.90;;;11.60;96.70;;;;;;5066756;28;20056;-69
2024/03/27 09:43:24;;;;;;;5.32;0.77;;;11.50;96.70;;;;;;5059850;28;20578;-69
2024/03/27 09:45:52;;;;;;;8.00;1.15;;;11.60;96.70;;;;;;5073376;28;20519;-69
2024/03/27 09:48:22;;;;;;;5.22;1.27;;;11.60;96.70;;;;;;5074619;28;20044;-69
2024/03/27 09:50:53;;;;;;;6.18;1.35;;;11.60;96.70;;;;;;5074638;28;20091;-69
2024/03/27 09:53:23;;;;;;;8.88;2.22;;;11.60;96.70;;;;;;5080077;28;20060;-69
2024/03/27 09:55:54;;;;;;;9.60;1.50;;;11.60;96.70;;;;;;5075098;28;20063;-69
2024/03/27 09:58:24;;;;;;;8.38;2.50;;;11.60;96.70;;;;;;5064656;28;20048;-69
2024/03/27 10:00:58;;;;;;;7.18;1.20;;;11.60;96.70;;;;;;5045256;28;20120;-69
2024/03/27 10:03:26;;;;;;;5.70;1.50;;;11.60;96.70;;;;;;5049690;28;20170;-69
2024/03/27 10:05:58;;;;;;;7.28;1.58;;;11.60;96.70;;;;;;5048124;28;20036;-68
2024/03/27 10:08:26;;;;;;;5.90;1.35;;;11.60;96.70;;;;;;5064458;28;20046;-69
2024/03/27 10:10:57;;;;;;;6.38;1.45;;;11.60;96.70;;;;;;5074086;28;20863;-69
2024/03/27 10:13:24;;;;;;;8.43;1.65;;;11.60;96.70;;;;;;5085980;28;20059;-68
2024/03/27 10:15:52;;;;;;;6.45;1.50;;;11.60;96.70;;;;;;5052427;28;20112;-67
2024/03/27 10:18:20;;;;;;;7.35;1.70;;;11.70;96.70;;;;;;5040450;28;20056;-69
2024/03/27 10:20:47;;;;;;;8.18;1.10;;;11.60;96.70;;;;;;5063734;28;20587;-69
2024/03/27 10:23:16;;;;;;;4.43;1.13;;;11.60;96.70;;;;;;5034176;28;20053;-67
2024/03/27 10:25:47;;;;;;;4.60;0.65;;;11.60;96.70;;;;;;5052194;28;20048;-68
2024/03/27 10:28:17;;;;;;;3.08;0.60;;;11.50;96.70;;;;;;5052792;28;20064;-67
2024/03/27 10:30:46;;;;;;;2.67;0.93;;;11.40;96.70;;;;;;5017775;28;20528;-68
2024/03/27 10:33:14;;;;;;;4.18;0.50;;;11.30;96.70;;;;;;5033518;28;20509;-68
2024/03/27 10:35:44;;;;;;;2.47;0.43;;;11.30;96.70;;;;;;5061382;28;20048;-69
2024/03/27 10:38:11;;;;;;;4.78;0.80;;;11.10;96.70;;;;;;5053242;28;20064;-70
2024/03/27 10:40:40;;;;;;;5.63;0.70;;;11.10;96.70;;;;;;5053164;28;20054;-69
2024/03/27 10:43:18;;;;;;;2.55;0.60;;;11.10;96.70;;;;;;5046465;28;20048;-68
2024/03/27 10:45:51;;;;;;;5.15;0.60;;;11.10;96.70;;;;;;5016736;28;20619;-70
2024/03/27 10:48:21;;;;;;;6.88;0.90;;;11.10;96.70;;;;;;5016308;28;20450;-68
2024/03/27 10:50:50;;;;;;;4.65;0.88;;;11.10;96.70;;;;;;5060823;28;20047;-68
2024/03/27 10:53:19;;;;;;;2.58;0.52;;;11.10;96.70;;;;;;5069061;28;20048;-68
2024/03/27 10:55:48;;;;;;;4.80;0.93;;;11.20;96.70;;;;;;5069490;28;20044;-69
2024/03/27 10:58:17;;;;;;;4.50;0.73;;;11.20;96.70;;;;;;5053034;28;20132;-69
2024/03/27 11:00:46;;;;;;;2.42;0.57;;;11.20;96.70;;;;;;5039687;28;20425;-68
2024/03/27 11:03:15;;;;;;;4.95;0.60;;;11.20;96.70;;;;;;5052315;28;20057;-69
2024/03/27 11:05:46;;;;;;;3.53;0.40;;;11.20;96.70;;;;;;5068238;28;20412;-69
2024/03/27 11:08:17;;;;;;;2.70;0.47;;;11.20;96.70;;;;;;5069060;28;20041;-68
2024/03/27 11:10:45;;;;;;;5.28;1.58;;;11.20;96.70;;;;;;5061469;28;20044;-69
2024/03/27 11:13:17;;;;;;;2.08;0.65;;;11.20;96.70;;;;;;5052780;28;20076;-68
2024/03/27 11:15:54;;;;;;;2.90;0.60;;;11.30;96.70;;;;;;5068829;28;20032;-69
2024/03/27 11:18:29;;;;;;;4.13;0.63;;;11.30;96.70;;;;;;5068805;28;20044;-69
2024/03/27 11:20:57;;;;;;;4.53;0.80;;;11.40;96.70;;;;;;5065859;28;20045;-68
2024/03/27 11:23:30;;;;;;;5.43;0.98;;;11.50;96.70;;;;;;5068711;28;20050;-69
2024/03/27 11:26:02;;;;;;;3.03;0.60;;;11.60;96.70;;;;;;5068011;28;20048;-68
2024/03/27 11:28:33;;;;;;;3.08;0.82;;;11.50;96.70;;;;;;5027235;28;20048;-69
2024/03/27 11:31:04;;;;;;;2.72;0.65;;;11.50;96.70;;;;;;5048468;28;20057;-69
2024/03/27 11:33:32;;;;;;;4.07;0.60;;;11.50;96.70;;;;;;5050622;28;20041;-69
2024/03/27 11:36:01;;;;;;;2.80;0.60;;;11.60;96.70;;;;;;5073762;28;20045;-69
2024/03/27 11:38:30;;;;;;;2.53;0.40;;;11.60;96.70;;;;;;5068548;28;20075;-69
2024/03/27 11:40:57;;;;;;;2.55;0.50;;;11.60;96.70;;;;;;5043102;28;20048;-69
2024/03/27 11:43:25;;;;;;;3.15;0.40;;;11.60;96.70;;;;;;5031856;28;20399;-69
2024/03/27 11:45:55;;;;;;;1.83;0.70;;;11.60;96.70;;;;;;5051327;28;20059;-69
2024/03/27 11:48:24;;;;;;;3.30;0.63;;;11.70;96.70;;;;;;5067961;28;20047;-70
2024/03/27 11:50:52;;;;;;;2.78;0.88;;;11.70;96.70;;;;;;5062572;28;20127;-70
2024/03/27 11:53:19;;;;;;;3.40;0.80;;;11.70;96.70;;;;;;5041889;28;20087;-69
2024/03/27 11:55:54;;;;;;;3.25;1.05;;;11.60;96.70;;;;;;5057386;28;20041;-70
2024/03/27 11:58:22;;;;;;;1.50;0.47;;;11.50;96.70;;;;;;5068091;28;20044;-71
2024/03/27 12:00:50;;;;;;;4.50;0.80;;;11.40;96.70;;;;;;5051136;28;20686;-69
2024/03/27 12:03:17;;;;;;;2.28;0.50;;;11.40;96.70;;;;;;5067048;28;20075;-69
2024/03/27 12:05:46;;;;;;;1.75;0.47;;;11.50;96.70;;;;;;5045799;28;20571;-70
2024/03/27 12:08:14;;;;;;;1.35;0.30;;;11.50;96.70;;;;;;5042465;28;20060;-70
2024/03/27 12:10:42;;;;;;;1.30;0.40;;;11.40;96.70;;;;;;5051072;28;20075;-70
2024/03/27 12:13:09;;;;;;;1.75;0.50;;;11.40;96.70;;;;;;5050885;28;20052;-70
2024/03/27 12:15:37;;;;;;;0.98;0.50;;;11.50;96.70;;;;;;5084795;28;20045;-70
2024/03/27 12:18:04;;;;;;;1.40;0.38;;;11.40;96.70;;;;;;5068373;28;20044;-70
2024/03/27 12:20:32;;;;;;;3.30;0.60;;;11.40;96.70;;;;;;5067065;28;20062;-69
2024/03/27 12:23:01;;;;;;;2.47;0.40;;;11.40;96.70;;;;;;5068103;28;20493;-70
2024/03/27 12:25:31;;;;;;;0.77;0.35;;;11.60;96.70;;;;;;5055236;28;20415;-70
2024/03/27 12:28:00;;;;;;;0.70;0.30;;;11.60;96.70;;;;;;5065203;28;20144;-70
2024/03/27 12:30:28;;;;;;;1.40;0.32;;;11.60;96.70;;;;;;5047375;28;20065;-70
2024/03/27 12:32:55;;;;;;;1.30;0.30;;;11.60;96.70;;;;;;5050565;28;20102;-69
2024/03/27 12:35:23;;;;;;;1.45;0.60;;;11.60;96.70;;;;;;5065703;28;20067;-70
2024/03/27 12:37:50;;;;;;;3.97;1.85;;;11.70;96.70;;;;;;5050072;28;20203;-69
2024/03/27 12:40:19;;;;;;;1.77;0.90;;;11.80;96.70;;;;;;5051171;28;20112;-69
2024/03/27 12:42:47;;;;;;;2.42;0.93;;;11.90;96.70;;;;;;5059060;28;20037;-71
2024/03/27 12:45:17;;;;;;;2.90;1.50;;;11.90;96.70;;;;;;5047765;28;20040;-70
2024/03/27 12:47:44;;;;;;;1.80;0.60;;;11.90;96.70;;;;;;5045223;28;20387;-69
2024/03/27 12:50:12;;;;;;;4.50;1.42;;;12.00;96.70;;;;;;5047635;28;20049;-70
2024/03/27 12:52:41;;;;;;;0.82;0.60;;;12.10;96.70;;;;;;5048094;28;20423;-69